sensor_id;sensor_type;location;lat;lon;timestamp;temperature;humidity
26254;DHT22;53339;51.378;0.094;2023-12-22T00:01:59;10.20;69.10
26254;DHT22;53339;51.378;0.094;2023-12-22T00:04:27;10.20;69.10
26254;DHT22;53339;51.378;0.094;2023-12-22T00:06:55;10.20;69.60
26254;DHT22;53339;51.378;0.094;2023-12-22T00:09:23;10.20;69.70
26254;DHT22;53339;51.378;0.094;2023-12-22T00:11:52;10.20;70.30
26254;DHT22;53339;51.378;0.094;2023-12-22T00:14:21;10.10;70.00
26254;DHT22;53339;51.378;0.094;2023-12-22T00:16:49;10.10;70.30
26254;DHT22;53339;51.378;0.094;2023-12-22T00:19:17;10.10;70.30
26254;DHT22;53339;51.378;0.094;2023-12-22T00:21:47;10.10;70.60
26254;DHT22;53339;51.378;0.094;2023-12-22T00:24:19;10.00;70.40
26254;DHT22;53339;51.378;0.094;2023-12-22T00:26:55;10.10;70.80
26254;DHT22;53339;51.378;0.094;2023-12-22T00:29:23;10.00;70.90
26254;DHT22;53339;51.378;0.094;2023-12-22T00:31:54;10.00;70.90
26254;DHT22;53339;51.378;0.094;2023-12-22T00:34:26;10.00;71.20
26254;DHT22;53339;51.378;0.094;2023-12-22T00:36:58;10.00;71.10
26254;DHT22;53339;51.378;0.094;2023-12-22T00:39:27;10.00;71.60
26254;DHT22;53339;51.378;0.094;2023-12-22T00:41:57;10.00;71.50
26254;DHT22;53339;51.378;0.094;2023-12-22T00:44:25;10.00;71.80
26254;DHT22;53339;51.378;0.094;2023-12-22T00:46:55;10.00;71.70
26254;DHT22;53339;51.378;0.094;2023-12-22T00:49:26;10.00;72.10
26254;DHT22;53339;51.378;0.094;2023-12-22T00:51:55;10.00;72.40
26254;DHT22;53339;51.378;0.094;2023-12-22T00:54:23;10.00;72.20
26254;DHT22;53339;51.378;0.094;2023-12-22T00:56:52;10.10;72.20
26254;DHT22;53339;51.378;0.094;2023-12-22T00:59:24;10.00;72.50
26254;DHT22;53339;51.378;0.094;2023-12-22T01:01:52;10.00;72.90
26254;DHT22;53339;51.378;0.094;2023-12-22T01:04:21;10.00;72.70
26254;DHT22;53339;51.378;0.094;2023-12-22T01:06:49;10.00;73.10
26254;DHT22;53339;51.378;0.094;2023-12-22T01:09:18;10.10;73.10
26254;DHT22;53339;51.378;0.094;2023-12-22T01:11:47;10.10;73.10
26254;DHT22;53339;51.378;0.094;2023-12-22T01:14:15;10.20;73.10
26254;DHT22;53339;51.378;0.094;2023-12-22T01:16:43;10.20;73.20
26254;DHT22;53339;51.378;0.094;2023-12-22T01:19:11;10.30;73.00
26254;DHT22;53339;51.378;0.094;2023-12-22T01:21:42;10.20;73.50
26254;DHT22;53339;51.378;0.094;2023-12-22T01:24:13;10.20;73.50
26254;DHT22;53339;51.378;0.094;2023-12-22T01:26:42;10.30;73.60
26254;DHT22;53339;51.378;0.094;2023-12-22T01:29:10;10.40;73.40
26254;DHT22;53339;51.378;0.094;2023-12-22T01:31:39;10.40;73.40
26254;DHT22;53339;51.378;0.094;2023-12-22T01:34:07;10.50;73.60
26254;DHT22;53339;51.378;0.094;2023-12-22T01:36:35;10.50;73.60
26254;DHT22;53339;51.378;0.094;2023-12-22T01:39:04;10.50;74.00
26254;DHT22;53339;51.378;0.094;2023-12-22T01:41:34;10.50;74.30
26254;DHT22;53339;51.378;0.094;2023-12-22T01:44:02;10.60;74.50
26254;DHT22;53339;51.378;0.094;2023-12-22T01:46:36;10.60;74.50
26254;DHT22;53339;51.378;0.094;2023-12-22T01:49:05;10.60;74.70
26254;DHT22;53339;51.378;0.094;2023-12-22T01:51:35;10.70;74.80
26254;DHT22;53339;51.378;0.094;2023-12-22T01:54:05;10.70;75.10
26254;DHT22;53339;51.378;0.094;2023-12-22T01:56:34;10.70;75.30
26254;DHT22;53339;51.378;0.094;2023-12-22T01:59:02;10.70;75.60
26254;DHT22;53339;51.378;0.094;2023-12-22T02:01:31;10.70;75.90
26254;DHT22;53339;51.378;0.094;2023-12-22T02:04:00;10.70;76.30
26254;DHT22;53339;51.378;0.094;2023-12-22T02:06:30;10.70;76.30
26254;DHT22;53339;51.378;0.094;2023-12-22T02:09:02;10.70;76.40
26254;DHT22;53339;51.378;0.094;2023-12-22T02:11:33;10.70;76.30
26254;DHT22;53339;51.378;0.094;2023-12-22T02:14:01;10.70;76.30
26254;DHT22;53339;51.378;0.094;2023-12-22T02:16:40;10.70;76.50
26254;DHT22;53339;51.378;0.094;2023-12-22T02:22:01;10.60;76.60
26254;DHT22;53339;51.378;0.094;2023-12-22T02:24:35;10.60;76.70
26254;DHT22;53339;51.378;0.094;2023-12-22T02:27:06;10.60;76.80
26254;DHT22;53339;51.378;0.094;2023-12-22T02:29:42;10.60;77.20
26254;DHT22;53339;51.378;0.094;2023-12-22T02:32:17;10.50;77.80
26254;DHT22;53339;51.378;0.094;2023-12-22T02:34:52;10.40;78.50
26254;DHT22;53339;51.378;0.094;2023-12-22T02:37:27;10.40;79.40
26254;DHT22;53339;51.378;0.094;2023-12-22T02:39:57;10.30;80.10
26254;DHT22;53339;51.378;0.094;2023-12-22T02:42:26;10.20;80.60
26254;DHT22;53339;51.378;0.094;2023-12-22T02:45:00;10.00;81.30
26254;DHT22;53339;51.378;0.094;2023-12-22T02:47:29;9.80;82.40
26254;DHT22;53339;51.378;0.094;2023-12-22T02:50:02;9.60;83.50
26254;DHT22;53339;51.378;0.094;2023-12-22T02:52:31;9.40;84.50
26254;DHT22;53339;51.378;0.094;2023-12-22T02:55:00;9.30;85.20
26254;DHT22;53339;51.378;0.094;2023-12-22T02:57:28;9.20;85.80
26254;DHT22;53339;51.378;0.094;2023-12-22T02:59:56;9.20;86.20
26254;DHT22;53339;51.378;0.094;2023-12-22T03:02:26;9.10;86.60
26254;DHT22;53339;51.378;0.094;2023-12-22T03:04:57;9.00;87.00
26254;DHT22;53339;51.378;0.094;2023-12-22T03:07:25;9.00;87.30
26254;DHT22;53339;51.378;0.094;2023-12-22T03:09:53;8.90;87.60
26254;DHT22;53339;51.378;0.094;2023-12-22T03:12:21;8.90;87.80
26254;DHT22;53339;51.378;0.094;2023-12-22T03:14:49;8.90;88.10
26254;DHT22;53339;51.378;0.094;2023-12-22T03:17:20;8.90;88.20
26254;DHT22;53339;51.378;0.094;2023-12-22T03:19:48;8.90;88.30
26254;DHT22;53339;51.378;0.094;2023-12-22T03:22:19;8.90;88.40
26254;DHT22;53339;51.378;0.094;2023-12-22T03:24:47;8.90;88.60
26254;DHT22;53339;51.378;0.094;2023-12-22T03:27:15;9.00;88.60
26254;DHT22;53339;51.378;0.094;2023-12-22T03:29:45;9.00;88.60
26254;DHT22;53339;51.378;0.094;2023-12-22T03:32:12;9.00;88.50
26254;DHT22;53339;51.378;0.094;2023-12-22T03:34:43;9.00;88.40
26254;DHT22;53339;51.378;0.094;2023-12-22T03:37:14;9.00;88.40
26254;DHT22;53339;51.378;0.094;2023-12-22T03:39:42;9.00;88.40
26254;DHT22;53339;51.378;0.094;2023-12-22T03:42:10;9.00;88.30
26254;DHT22;53339;51.378;0.094;2023-12-22T03:44:39;9.10;88.20
26254;DHT22;53339;51.378;0.094;2023-12-22T03:47:07;9.10;88.20
26254;DHT22;53339;51.378;0.094;2023-12-22T03:49:39;9.10;88.20
26254;DHT22;53339;51.378;0.094;2023-12-22T03:52:08;9.10;88.20
26254;DHT22;53339;51.378;0.094;2023-12-22T03:54:39;9.10;88.20
26254;DHT22;53339;51.378;0.094;2023-12-22T03:57:08;9.10;88.10
26254;DHT22;53339;51.378;0.094;2023-12-22T03:59:36;9.20;88.00
26254;DHT22;53339;51.378;0.094;2023-12-22T04:02:04;9.20;88.00
26254;DHT22;53339;51.378;0.094;2023-12-22T04:04:32;9.20;87.90
26254;DHT22;53339;51.378;0.094;2023-12-22T04:07:00;9.20;87.90
26254;DHT22;53339;51.378;0.094;2023-12-22T04:09:29;9.30;87.70
26254;DHT22;53339;51.378;0.094;2023-12-22T04:11:57;9.30;87.60
26254;DHT22;53339;51.378;0.094;2023-12-22T04:14:26;9.40;87.50
26254;DHT22;53339;51.378;0.094;2023-12-22T04:16:54;9.50;87.40
26254;DHT22;53339;51.378;0.094;2023-12-22T04:19:22;9.60;87.20
26254;DHT22;53339;51.378;0.094;2023-12-22T04:21:50;9.60;87.00
26254;DHT22;53339;51.378;0.094;2023-12-22T04:24:25;9.70;86.80
26254;DHT22;53339;51.378;0.094;2023-12-22T04:26:53;9.70;86.70
26254;DHT22;53339;51.378;0.094;2023-12-22T04:29:21;9.70;86.50
26254;DHT22;53339;51.378;0.094;2023-12-22T04:31:52;9.80;86.30
26254;DHT22;53339;51.378;0.094;2023-12-22T04:34:23;9.90;86.20
26254;DHT22;53339;51.378;0.094;2023-12-22T04:36:54;9.90;86.10
26254;DHT22;53339;51.378;0.094;2023-12-22T04:39:25;9.90;86.00
26254;DHT22;53339;51.378;0.094;2023-12-22T04:41:54;9.90;86.10
26254;DHT22;53339;51.378;0.094;2023-12-22T04:44:22;9.90;86.20
26254;DHT22;53339;51.378;0.094;2023-12-22T04:46:50;10.00;86.20
26254;DHT22;53339;51.378;0.094;2023-12-22T04:49:18;10.00;86.20
26254;DHT22;53339;51.378;0.094;2023-12-22T04:51:47;10.10;86.00
26254;DHT22;53339;51.378;0.094;2023-12-22T04:54:15;10.10;86.00
26254;DHT22;53339;51.378;0.094;2023-12-22T04:56:43;10.20;85.80
26254;DHT22;53339;51.378;0.094;2023-12-22T04:59:11;10.20;85.60
26254;DHT22;53339;51.378;0.094;2023-12-22T05:01:39;10.30;85.50
26254;DHT22;53339;51.378;0.094;2023-12-22T05:04:07;10.30;85.30
26254;DHT22;53339;51.378;0.094;2023-12-22T05:06:38;10.30;85.40
26254;DHT22;53339;51.378;0.094;2023-12-22T05:09:06;10.40;85.10
26254;DHT22;53339;51.378;0.094;2023-12-22T05:11:35;10.40;85.00
26254;DHT22;53339;51.378;0.094;2023-12-22T05:14:03;10.40;84.90
26254;DHT22;53339;51.378;0.094;2023-12-22T05:16:31;10.50;84.80
26254;DHT22;53339;51.378;0.094;2023-12-22T05:19:00;10.50;84.60
26254;DHT22;53339;51.378;0.094;2023-12-22T05:21:31;10.50;84.60
26254;DHT22;53339;51.378;0.094;2023-12-22T05:23:59;10.60;84.50
26254;DHT22;53339;51.378;0.094;2023-12-22T05:26:27;10.60;84.40
26254;DHT22;53339;51.378;0.094;2023-12-22T05:28:58;10.60;84.10
26254;DHT22;53339;51.378;0.094;2023-12-22T05:31:26;10.70;83.90
26254;DHT22;53339;51.378;0.094;2023-12-22T05:33:55;10.70;83.80
26254;DHT22;53339;51.378;0.094;2023-12-22T05:36:23;10.60;83.60
26254;DHT22;53339;51.378;0.094;2023-12-22T05:38:56;10.70;83.40
26254;DHT22;53339;51.378;0.094;2023-12-22T05:41:24;10.70;83.40
26254;DHT22;53339;51.378;0.094;2023-12-22T05:43:52;10.70;83.50
26254;DHT22;53339;51.378;0.094;2023-12-22T05:46:22;10.70;83.50
26254;DHT22;53339;51.378;0.094;2023-12-22T05:48:53;10.70;83.50
26254;DHT22;53339;51.378;0.094;2023-12-22T05:51:23;10.70;83.30
26254;DHT22;53339;51.378;0.094;2023-12-22T05:53:52;10.70;83.40
26254;DHT22;53339;51.378;0.094;2023-12-22T05:56:23;10.70;83.80
26254;DHT22;53339;51.378;0.094;2023-12-22T05:58:52;10.60;84.50
26254;DHT22;53339;51.378;0.094;2023-12-22T06:01:20;10.40;85.60
26254;DHT22;53339;51.378;0.094;2023-12-22T06:03:48;10.20;86.50
26254;DHT22;53339;51.378;0.094;2023-12-22T06:06:16;10.10;87.10
26254;DHT22;53339;51.378;0.094;2023-12-22T06:08:44;10.00;87.80
26254;DHT22;53339;51.378;0.094;2023-12-22T06:11:13;10.00;88.20
26254;DHT22;53339;51.378;0.094;2023-12-22T06:13:43;9.90;88.60
26254;DHT22;53339;51.378;0.094;2023-12-22T06:16:15;9.90;88.80
26254;DHT22;53339;51.378;0.094;2023-12-22T06:18:43;9.90;89.10
26254;DHT22;53339;51.378;0.094;2023-12-22T06:21:11;9.90;89.20
26254;DHT22;53339;51.378;0.094;2023-12-22T06:23:39;9.90;89.40
26254;DHT22;53339;51.378;0.094;2023-12-22T06:26:09;9.90;89.40
26254;DHT22;53339;51.378;0.094;2023-12-22T06:28:38;9.90;89.60
26254;DHT22;53339;51.378;0.094;2023-12-22T06:31:08;9.90;89.60
26254;DHT22;53339;51.378;0.094;2023-12-22T06:33:36;9.90;89.60
26254;DHT22;53339;51.378;0.094;2023-12-22T06:36:05;9.80;89.50
26254;DHT22;53339;51.378;0.094;2023-12-22T06:38:33;9.80;89.60
26254;DHT22;53339;51.378;0.094;2023-12-22T06:41:01;9.80;89.60
26254;DHT22;53339;51.378;0.094;2023-12-22T06:43:30;9.80;89.60
26254;DHT22;53339;51.378;0.094;2023-12-22T06:45:58;9.80;89.60
26254;DHT22;53339;51.378;0.094;2023-12-22T06:48:27;9.80;89.60
26254;DHT22;53339;51.378;0.094;2023-12-22T06:50:56;9.90;89.60
26254;DHT22;53339;51.378;0.094;2023-12-22T06:53:27;9.90;89.60
26254;DHT22;53339;51.378;0.094;2023-12-22T06:55:58;9.90;89.60
26254;DHT22;53339;51.378;0.094;2023-12-22T06:58:29;9.90;89.60
26254;DHT22;53339;51.378;0.094;2023-12-22T07:00:59;9.90;89.60
26254;DHT22;53339;51.378;0.094;2023-12-22T07:03:27;9.90;89.60
26254;DHT22;53339;51.378;0.094;2023-12-22T07:05:55;9.90;89.70
26254;DHT22;53339;51.378;0.094;2023-12-22T07:08:23;9.80;89.60
26254;DHT22;53339;51.378;0.094;2023-12-22T07:10:52;9.90;89.70
26254;DHT22;53339;51.378;0.094;2023-12-22T07:13:20;9.90;89.60
26254;DHT22;53339;51.378;0.094;2023-12-22T07:15:48;9.90;89.40
26254;DHT22;53339;51.378;0.094;2023-12-22T07:18:17;9.90;89.30
26254;DHT22;53339;51.378;0.094;2023-12-22T07:20:48;9.90;89.20
26254;DHT22;53339;51.378;0.094;2023-12-22T07:23:16;9.90;89.10
26254;DHT22;53339;51.378;0.094;2023-12-22T07:25:46;9.90;89.00
26254;DHT22;53339;51.378;0.094;2023-12-22T07:28:15;10.00;88.90
26254;DHT22;53339;51.378;0.094;2023-12-22T07:30:44;9.90;88.80
26254;DHT22;53339;51.378;0.094;2023-12-22T07:33:11;9.90;88.70
26254;DHT22;53339;51.378;0.094;2023-12-22T07:35:40;9.90;88.60
26254;DHT22;53339;51.378;0.094;2023-12-22T07:38:08;9.90;88.40
26254;DHT22;53339;51.378;0.094;2023-12-22T07:40:37;9.90;88.40
26254;DHT22;53339;51.378;0.094;2023-12-22T07:43:09;9.90;88.40
26254;DHT22;53339;51.378;0.094;2023-12-22T07:45:37;10.00;88.30
26254;DHT22;53339;51.378;0.094;2023-12-22T07:48:08;9.90;88.20
26254;DHT22;53339;51.378;0.094;2023-12-22T07:50:40;9.90;88.10
26254;DHT22;53339;51.378;0.094;2023-12-22T07:53:14;10.00;88.10
26254;DHT22;53339;51.378;0.094;2023-12-22T07:55:46;10.00;87.80
26254;DHT22;53339;51.378;0.094;2023-12-22T07:58:16;10.00;87.90
26254;DHT22;53339;51.378;0.094;2023-12-22T08:00:45;10.00;88.00
26254;DHT22;53339;51.378;0.094;2023-12-22T08:03:14;9.90;88.00
26254;DHT22;53339;51.378;0.094;2023-12-22T08:05:41;9.90;88.10
26254;DHT22;53339;51.378;0.094;2023-12-22T08:08:09;9.90;88.00
26254;DHT22;53339;51.378;0.094;2023-12-22T08:10:37;10.00;88.00
26254;DHT22;53339;51.378;0.094;2023-12-22T08:13:05;9.90;88.00
26254;DHT22;53339;51.378;0.094;2023-12-22T08:15:33;10.00;87.80
26254;DHT22;53339;51.378;0.094;2023-12-22T08:18:03;10.00;87.80
26254;DHT22;53339;51.378;0.094;2023-12-22T08:20:31;10.00;87.80
26254;DHT22;53339;51.378;0.094;2023-12-22T08:23:00;10.10;87.70
26254;DHT22;53339;51.378;0.094;2023-12-22T08:25:30;10.10;87.60
26254;DHT22;53339;51.378;0.094;2023-12-22T08:27:58;10.10;87.30
26254;DHT22;53339;51.378;0.094;2023-12-22T08:30:28;10.20;86.90
26254;DHT22;53339;51.378;0.094;2023-12-22T08:32:56;10.30;86.60
26254;DHT22;53339;51.378;0.094;2023-12-22T08:35:24;10.30;86.40
26254;DHT22;53339;51.378;0.094;2023-12-22T08:37:52;10.40;85.80
26254;DHT22;53339;51.378;0.094;2023-12-22T08:40:21;10.50;85.30
26254;DHT22;53339;51.378;0.094;2023-12-22T08:42:57;10.50;84.80
26254;DHT22;53339;51.378;0.094;2023-12-22T08:45:27;10.60;84.30
26254;DHT22;53339;51.378;0.094;2023-12-22T08:47:56;10.60;84.20
26254;DHT22;53339;51.378;0.094;2023-12-22T08:50:25;10.70;83.50
26254;DHT22;53339;51.378;0.094;2023-12-22T08:52:53;10.70;83.20
26254;DHT22;53339;51.378;0.094;2023-12-22T08:55:21;10.80;83.00
26254;DHT22;53339;51.378;0.094;2023-12-22T08:57:49;10.80;82.90
26254;DHT22;53339;51.378;0.094;2023-12-22T09:00:22;10.90;82.50
26254;DHT22;53339;51.378;0.094;2023-12-22T09:02:50;10.90;82.70
26254;DHT22;53339;51.378;0.094;2023-12-22T09:05:21;10.90;82.40
26254;DHT22;53339;51.378;0.094;2023-12-22T09:07:52;11.00;81.80
26254;DHT22;53339;51.378;0.094;2023-12-22T09:10:20;11.00;81.50
26254;DHT22;53339;51.378;0.094;2023-12-22T09:12:48;11.10;81.10
26254;DHT22;53339;51.378;0.094;2023-12-22T09:15:18;11.10;80.90
26254;DHT22;53339;51.378;0.094;2023-12-22T09:17:46;11.10;81.10
26254;DHT22;53339;51.378;0.094;2023-12-22T09:20:14;11.10;80.90
26254;DHT22;53339;51.378;0.094;2023-12-22T09:22:41;11.10;80.90
26254;DHT22;53339;51.378;0.094;2023-12-22T09:25:09;11.10;80.90
26254;DHT22;53339;51.378;0.094;2023-12-22T09:27:37;11.10;80.60
26254;DHT22;53339;51.378;0.094;2023-12-22T09:30:09;11.10;80.30
26254;DHT22;53339;51.378;0.094;2023-12-22T09:32:37;11.20;80.10
26254;DHT22;53339;51.378;0.094;2023-12-22T09:35:05;11.20;80.10
26254;DHT22;53339;51.378;0.094;2023-12-22T09:37:33;11.20;79.80
26254;DHT22;53339;51.378;0.094;2023-12-22T09:40:02;11.20;79.80
26254;DHT22;53339;51.378;0.094;2023-12-22T09:42:30;11.20;79.80
26254;DHT22;53339;51.378;0.094;2023-12-22T09:45:00;11.20;80.00
26254;DHT22;53339;51.378;0.094;2023-12-22T09:47:30;11.20;79.70
26254;DHT22;53339;51.378;0.094;2023-12-22T09:50:02;11.20;79.60
26254;DHT22;53339;51.378;0.094;2023-12-22T09:52:32;11.20;79.40
26254;DHT22;53339;51.378;0.094;2023-12-22T09:55:05;11.20;79.30
26254;DHT22;53339;51.378;0.094;2023-12-22T09:57:37;11.30;79.60
26254;DHT22;53339;51.378;0.094;2023-12-22T10:00:08;11.30;79.40
26254;DHT22;53339;51.378;0.094;2023-12-22T10:02:40;11.30;79.30
26254;DHT22;53339;51.378;0.094;2023-12-22T10:05:09;11.30;79.50
26254;DHT22;53339;51.378;0.094;2023-12-22T10:07:42;11.30;79.40
26254;DHT22;53339;51.378;0.094;2023-12-22T10:10:11;11.20;79.70
26254;DHT22;53339;51.378;0.094;2023-12-22T10:12:40;11.30;79.70
26254;DHT22;53339;51.378;0.094;2023-12-22T10:15:09;11.30;79.20
26254;DHT22;53339;51.378;0.094;2023-12-22T10:17:37;11.30;79.10
26254;DHT22;53339;51.378;0.094;2023-12-22T10:20:08;11.30;79.30
26254;DHT22;53339;51.378;0.094;2023-12-22T10:22:38;11.30;79.30
26254;DHT22;53339;51.378;0.094;2023-12-22T10:25:08;11.40;79.40
26254;DHT22;53339;51.378;0.094;2023-12-22T10:27:36;11.40;79.40
26254;DHT22;53339;51.378;0.094;2023-12-22T10:30:04;11.40;78.90
26254;DHT22;53339;51.378;0.094;2023-12-22T10:32:33;11.40;79.20
26254;DHT22;53339;51.378;0.094;2023-12-22T10:35:01;11.40;79.20
26254;DHT22;53339;51.378;0.094;2023-12-22T10:37:32;11.40;79.10
26254;DHT22;53339;51.378;0.094;2023-12-22T10:40:04;11.40;79.20
26254;DHT22;53339;51.378;0.094;2023-12-22T10:42:33;11.40;79.00
26254;DHT22;53339;51.378;0.094;2023-12-22T10:45:01;11.40;79.30
26254;DHT22;53339;51.378;0.094;2023-12-22T10:47:32;11.40;78.90
26254;DHT22;53339;51.378;0.094;2023-12-22T10:50:03;11.40;78.80
26254;DHT22;53339;51.378;0.094;2023-12-22T10:52:32;11.40;78.80
26254;DHT22;53339;51.378;0.094;2023-12-22T10:55:00;11.40;78.90
26254;DHT22;53339;51.378;0.094;2023-12-22T10:57:28;11.40;79.10
26254;DHT22;53339;51.378;0.094;2023-12-22T10:59:56;11.50;79.00
26254;DHT22;53339;51.378;0.094;2023-12-22T11:02:28;11.50;79.10
26254;DHT22;53339;51.378;0.094;2023-12-22T11:05:01;11.50;78.80
26254;DHT22;53339;51.378;0.094;2023-12-22T11:07:36;11.50;78.90
26254;DHT22;53339;51.378;0.094;2023-12-22T11:10:06;11.50;78.80
26254;DHT22;53339;51.378;0.094;2023-12-22T11:12:35;11.50;78.80
26254;DHT22;53339;51.378;0.094;2023-12-22T11:15:05;11.40;78.70
26254;DHT22;53339;51.378;0.094;2023-12-22T11:17:40;11.40;79.00
26254;DHT22;53339;51.378;0.094;2023-12-22T11:20:10;11.40;79.40
26254;DHT22;53339;51.378;0.094;2023-12-22T11:22:42;11.40;79.00
26254;DHT22;53339;51.378;0.094;2023-12-22T11:25:11;11.40;78.90
26254;DHT22;53339;51.378;0.094;2023-12-22T11:27:43;11.40;78.80
26254;DHT22;53339;51.378;0.094;2023-12-22T11:30:16;11.50;78.50
26254;DHT22;53339;51.378;0.094;2023-12-22T11:32:44;11.50;78.40
26254;DHT22;53339;51.378;0.094;2023-12-22T11:35:16;11.50;78.20
26254;DHT22;53339;51.378;0.094;2023-12-22T11:37:46;11.50;77.80
26254;DHT22;53339;51.378;0.094;2023-12-22T11:40:15;11.60;77.70
26254;DHT22;53339;51.378;0.094;2023-12-22T11:42:49;11.60;77.80
26254;DHT22;53339;51.378;0.094;2023-12-22T11:45:19;11.60;77.70
26254;DHT22;53339;51.378;0.094;2023-12-22T11:47:47;11.70;77.30
26254;DHT22;53339;51.378;0.094;2023-12-22T11:50:36;11.70;76.80
26254;DHT22;53339;51.378;0.094;2023-12-22T11:53:24;11.70;76.30
26254;DHT22;53339;51.378;0.094;2023-12-22T11:58:38;11.80;76.30
26254;DHT22;53339;51.378;0.094;2023-12-22T12:01:09;11.80;76.40
26254;DHT22;53339;51.378;0.094;2023-12-22T12:08:57;11.80;76.10
26254;DHT22;53339;51.378;0.094;2023-12-22T12:14:28;11.90;75.50
26254;DHT22;53339;51.378;0.094;2023-12-22T12:17:07;11.90;75.30
26254;DHT22;53339;51.378;0.094;2023-12-22T12:19:39;11.90;75.80
26254;DHT22;53339;51.378;0.094;2023-12-22T12:22:12;12.00;75.30
26254;DHT22;53339;51.378;0.094;2023-12-22T12:24:41;11.90;74.80
26254;DHT22;53339;51.378;0.094;2023-12-22T12:27:10;12.00;74.80
26254;DHT22;53339;51.378;0.094;2023-12-22T12:29:39;12.00;74.90
26254;DHT22;53339;51.378;0.094;2023-12-22T12:32:08;12.00;74.60
26254;DHT22;53339;51.378;0.094;2023-12-22T12:34:42;11.90;74.20
26254;DHT22;53339;51.378;0.094;2023-12-22T12:37:10;11.90;74.60
26254;DHT22;53339;51.378;0.094;2023-12-22T12:39:40;11.90;74.50
26254;DHT22;53339;51.378;0.094;2023-12-22T12:42:15;11.90;73.80
26254;DHT22;53339;51.378;0.094;2023-12-22T12:44:44;12.00;73.60
26254;DHT22;53339;51.378;0.094;2023-12-22T12:47:14;12.00;73.20
26254;DHT22;53339;51.378;0.094;2023-12-22T12:49:42;12.00;73.50
26254;DHT22;53339;51.378;0.094;2023-12-22T12:52:14;12.00;74.10
26254;DHT22;53339;51.378;0.094;2023-12-22T12:54:46;12.10;73.70
26254;DHT22;53339;51.378;0.094;2023-12-22T12:57:15;12.10;73.70
26254;DHT22;53339;51.378;0.094;2023-12-22T12:59:50;12.00;73.90
26254;DHT22;53339;51.378;0.094;2023-12-22T13:02:19;12.00;73.80
26254;DHT22;53339;51.378;0.094;2023-12-22T13:04:48;12.00;73.90
26254;DHT22;53339;51.378;0.094;2023-12-22T13:07:25;11.90;73.80
26254;DHT22;53339;51.378;0.094;2023-12-22T13:09:53;11.90;73.80
26254;DHT22;53339;51.378;0.094;2023-12-22T13:12:25;11.90;73.70
26254;DHT22;53339;51.378;0.094;2023-12-22T13:14:53;11.90;73.90
26254;DHT22;53339;51.378;0.094;2023-12-22T13:17:21;11.90;74.00
26254;DHT22;53339;51.378;0.094;2023-12-22T13:19:50;11.90;74.40
26254;DHT22;53339;51.378;0.094;2023-12-22T13:22:18;11.80;74.70
26254;DHT22;53339;51.378;0.094;2023-12-22T13:24:56;11.80;74.50
26254;DHT22;53339;51.378;0.094;2023-12-22T13:27:25;11.90;74.40
26254;DHT22;53339;51.378;0.094;2023-12-22T13:29:54;11.90;74.30
26254;DHT22;53339;51.378;0.094;2023-12-22T13:32:22;11.90;74.30
26254;DHT22;53339;51.378;0.094;2023-12-22T13:34:55;11.90;74.00
26254;DHT22;53339;51.378;0.094;2023-12-22T13:37:25;11.90;74.10
26254;DHT22;53339;51.378;0.094;2023-12-22T13:39:58;11.90;74.10
26254;DHT22;53339;51.378;0.094;2023-12-22T13:42:27;11.90;74.20
26254;DHT22;53339;51.378;0.094;2023-12-22T13:44:55;11.90;74.30
26254;DHT22;53339;51.378;0.094;2023-12-22T13:47:23;11.90;74.30
26254;DHT22;53339;51.378;0.094;2023-12-22T13:49:54;11.90;73.60
26254;DHT22;53339;51.378;0.094;2023-12-22T13:52:30;11.90;74.00
26254;DHT22;53339;51.378;0.094;2023-12-22T13:55:15;12.00;73.80
26254;DHT22;53339;51.378;0.094;2023-12-22T13:57:44;12.00;73.90
26254;DHT22;53339;51.378;0.094;2023-12-22T14:02:47;12.00;73.60
26254;DHT22;53339;51.378;0.094;2023-12-22T14:05:18;12.00;73.80
26254;DHT22;53339;51.378;0.094;2023-12-22T14:07:47;12.00;74.10
26254;DHT22;53339;51.378;0.094;2023-12-22T14:10:17;11.90;73.90
26254;DHT22;53339;51.378;0.094;2023-12-22T14:12:45;11.90;73.40
26254;DHT22;53339;51.378;0.094;2023-12-22T14:15:13;11.90;73.00
26254;DHT22;53339;51.378;0.094;2023-12-22T14:17:41;12.00;73.30
26254;DHT22;53339;51.378;0.094;2023-12-22T14:20:10;12.00;73.10
26254;DHT22;53339;51.378;0.094;2023-12-22T14:22:39;12.00;73.40
26254;DHT22;53339;51.378;0.094;2023-12-22T14:25:07;12.00;73.00
26254;DHT22;53339;51.378;0.094;2023-12-22T14:27:36;12.00;73.10
26254;DHT22;53339;51.378;0.094;2023-12-22T14:30:05;12.00;72.70
26254;DHT22;53339;51.378;0.094;2023-12-22T14:32:34;12.10;72.30
26254;DHT22;53339;51.378;0.094;2023-12-22T14:35:02;12.10;72.50
26254;DHT22;53339;51.378;0.094;2023-12-22T14:37:32;12.10;72.30
26254;DHT22;53339;51.378;0.094;2023-12-22T14:40:02;12.10;71.80
26254;DHT22;53339;51.378;0.094;2023-12-22T14:42:30;12.20;71.80
26254;DHT22;53339;51.378;0.094;2023-12-22T14:44:59;12.20;71.30
26254;DHT22;53339;51.378;0.094;2023-12-22T14:47:32;12.20;71.90
26254;DHT22;53339;51.378;0.094;2023-12-22T14:50:00;12.20;71.70
26254;DHT22;53339;51.378;0.094;2023-12-22T14:52:32;12.20;71.90
26254;DHT22;53339;51.378;0.094;2023-12-22T14:55:01;12.20;72.00
26254;DHT22;53339;51.378;0.094;2023-12-22T14:57:29;12.10;71.70
26254;DHT22;53339;51.378;0.094;2023-12-22T14:59:57;12.10;71.10
26254;DHT22;53339;51.378;0.094;2023-12-22T15:02:26;12.10;71.40
26254;DHT22;53339;51.378;0.094;2023-12-22T15:04:53;12.10;71.80
26254;DHT22;53339;51.378;0.094;2023-12-22T15:07:23;12.10;72.00
26254;DHT22;53339;51.378;0.094;2023-12-22T15:09:55;12.10;71.60
26254;DHT22;53339;51.378;0.094;2023-12-22T15:12:23;12.10;71.30
26254;DHT22;53339;51.378;0.094;2023-12-22T15:14:51;12.10;71.80
26254;DHT22;53339;51.378;0.094;2023-12-22T15:17:19;12.10;71.80
26254;DHT22;53339;51.378;0.094;2023-12-22T15:19:47;12.00;72.20
26254;DHT22;53339;51.378;0.094;2023-12-22T15:22:16;12.00;72.60
26254;DHT22;53339;51.378;0.094;2023-12-22T15:24:44;12.00;72.60
26254;DHT22;53339;51.378;0.094;2023-12-22T15:27:16;11.90;72.10
26254;DHT22;53339;51.378;0.094;2023-12-22T15:29:45;11.90;72.40
26254;DHT22;53339;51.378;0.094;2023-12-22T15:32:15;11.90;72.00
26254;DHT22;53339;51.378;0.094;2023-12-22T15:34:46;11.90;72.10
26254;DHT22;53339;51.378;0.094;2023-12-22T15:37:14;11.80;72.30
26254;DHT22;53339;51.378;0.094;2023-12-22T15:39:42;11.80;72.10
26254;DHT22;53339;51.378;0.094;2023-12-22T15:42:11;11.80;72.10
26254;DHT22;53339;51.378;0.094;2023-12-22T15:44:40;11.80;72.40
26254;DHT22;53339;51.378;0.094;2023-12-22T15:47:08;11.70;72.70
26254;DHT22;53339;51.378;0.094;2023-12-22T15:49:39;11.70;72.90
26254;DHT22;53339;51.378;0.094;2023-12-22T15:52:10;11.70;73.00
26254;DHT22;53339;51.378;0.094;2023-12-22T15:54:39;11.60;73.10
26254;DHT22;53339;51.378;0.094;2023-12-22T15:57:07;11.60;73.20
26254;DHT22;53339;51.378;0.094;2023-12-22T15:59:35;11.60;72.90
26254;DHT22;53339;51.378;0.094;2023-12-22T16:02:03;11.60;73.20
26254;DHT22;53339;51.378;0.094;2023-12-22T16:04:31;11.60;72.50
26254;DHT22;53339;51.378;0.094;2023-12-22T16:06:59;11.60;72.30